sensor_id;sensor_type;location;lat;lon;timestamp;pressure;altitude;pressure_sealevel;temperature;humidity
19674;BME280;9986;50.610;7.230;2023-08-30T00:00:48;146682.77;;;15.49;100.00
19674;BME280;9986;50.610;7.230;2023-08-30T00:06:05;146671.41;;;15.44;100.00
19674;BME280;9986;50.610;7.230;2023-08-30T00:11:18;146538.73;;;14.92;100.00
19674;BME280;9986;50.610;7.230;2023-08-30T00:27:02;146614.52;;;15.22;100.00
19674;BME280;9986;50.610;7.230;2023-08-30T00:32:17;146649.94;;;15.36;100.00
19674;BME280;9986;50.610;7.230;2023-08-30T00:42:47;146644.88;;;15.34;100.00
19674;BME280;9986;50.610;7.230;2023-08-30T00:48:00;146569.03;;;15.04;100.00
19674;BME280;9986;50.610;7.230;2023-08-30T00:53:14;146562.73;;;15.01;100.00
19674;BME280;9986;50.610;7.230;2023-08-30T01:06:22;146551.38;;;14.97;100.00
19674;BME280;9986;50.610;7.230;2023-08-30T01:28:18;146596.81;;;15.15;100.00
19674;BME280;9986;50.610;7.230;2023-08-30T01:36:16;146594.31;;;15.14;100.00
19674;BME280;9986;50.610;7.230;2023-08-30T01:46:53;146586.73;;;15.11;100.00
19674;BME280;9986;50.610;7.230;2023-08-30T01:54:52;146563.97;;;15.02;100.00
19674;BME280;9986;50.610;7.230;2023-08-30T02:05:21;146540.02;;;15.01;100.00
19674;BME280;9986;50.610;7.230;2023-08-30T02:13:17;142458.05;;;14.72;100.00
19674;BME280;9986;50.610;7.230;2023-08-30T02:23:54;146558.97;;;15.00;100.00
19674;BME280;9986;50.610;7.230;2023-08-30T02:31:45;146500.84;;;14.77;100.00
19674;BME280;9986;50.610;7.230;2023-08-30T02:39:36;146507.20;;;14.80;100.00
19674;BME280;9986;50.610;7.230;2023-08-30T02:47:27;146521.08;;;14.85;100.00
19674;BME280;9986;50.610;7.230;2023-08-30T02:52:40;146498.31;;;14.76;100.00
19674;BME280;9986;50.610;7.230;2023-08-30T03:00:31;140324.89;;;14.81;100.00
19674;BME280;9986;50.610;7.230;2023-08-30T03:05:47;89120.66;;;14.43;100.00
19674;BME280;9986;50.610;7.230;2023-08-30T03:11:10;132770.19;;;14.78;100.00
19674;BME280;9986;50.610;7.230;2023-08-30T03:16:23;115832.05;;;14.71;100.00
19674;BME280;9986;50.610;7.230;2023-08-30T03:21:37;127939.16;;;14.62;100.00
19674;BME280;9986;50.610;7.230;2023-08-30T03:37:34;146498.31;;;14.76;100.00
19674;BME280;9986;50.610;7.230;2023-08-30T03:45:19;146486.97;;;14.72;100.00
19674;BME280;9986;50.610;7.230;2023-08-30T03:50:32;146449.09;;;14.57;100.00
19674;BME280;9986;50.610;7.230;2023-08-30T04:06:22;146457.97;;;14.60;100.00
19674;BME280;9986;50.610;7.230;2023-08-30T04:14:19;146440.28;;;14.53;100.00
19674;BME280;9986;50.610;7.230;2023-08-30T04:22:16;146418.81;;;14.45;100.00
19674;BME280;9986;50.610;7.230;2023-08-30T04:41:05;146354.48;;;14.19;100.00
19674;BME280;9986;50.610;7.230;2023-08-30T05:13:40;129471.17;;;13.82;100.00
19674;BME280;9986;50.610;7.230;2023-08-30T05:21:37;146258.56;;;13.82;100.00
19674;BME280;9986;50.610;7.230;2023-08-30T05:29:28;146249.69;;;13.78;100.00
19674;BME280;9986;50.610;7.230;2023-08-30T05:37:28;130975.84;;;13.67;100.00
19674;BME280;9986;50.610;7.230;2023-08-30T05:45:25;139532.59;;;13.67;100.00
19674;BME280;9986;50.610;7.230;2023-08-30T05:50:38;139191.06;;;13.67;100.00
19674;BME280;9986;50.610;7.230;2023-08-30T05:58:30;125341.07;;;13.68;100.00
19674;BME280;9986;50.610;7.230;2023-08-30T06:03:43;110356.76;;;13.70;100.00
19674;BME280;9986;50.610;7.230;2023-08-30T06:23:45;87151.64;;;13.72;100.00
19674;BME280;9986;50.610;7.230;2023-08-30T06:31:32;61921.34;;;13.74;100.00
19674;BME280;9986;50.610;7.230;2023-08-30T07:19:55;47436.97;;;14.49;100.00
19674;BME280;9986;50.610;7.230;2023-08-30T07:38:29;49801.00;;;14.76;100.00
19674;BME280;9986;50.610;7.230;2023-08-30T07:46:27;78888.41;;;14.93;100.00
19674;BME280;9986;50.610;7.230;2023-08-30T07:54:25;139217.84;;;15.20;100.00
19674;BME280;9986;50.610;7.230;2023-08-30T08:05:10;146676.47;;;15.46;100.00
19674;BME280;9986;50.610;7.230;2023-08-30T08:18:35;146733.28;;;15.69;100.00
19674;BME280;9986;50.610;7.230;2023-08-30T08:23:49;146735.81;;;15.70;100.00
19674;BME280;9986;50.610;7.230;2023-08-30T08:29:03;146767.41;;;15.82;100.00
19674;BME280;9986;50.610;7.230;2023-08-30T08:37:00;146791.44;;;15.92;100.00
19674;BME280;9986;50.610;7.230;2023-08-30T08:53:03;146895.14;;;16.32;100.00
19674;BME280;9986;50.610;7.230;2023-08-30T08:58:16;146959.59;;;16.58;100.00
19674;BME280;9986;50.610;7.230;2023-08-30T09:03:29;147026.64;;;16.84;100.00
19674;BME280;9986;50.610;7.230;2023-08-30T09:14:08;147149.36;;;17.32;100.00
19674;BME280;9986;50.610;7.230;2023-08-30T09:19:22;147224.06;;;17.62;100.00
19674;BME280;9986;50.610;7.230;2023-08-30T09:24:42;147277.20;;;17.83;100.00
19674;BME280;9986;50.610;7.230;2023-08-30T09:29:59;147274.67;;;17.82;100.00
19674;BME280;9986;50.610;7.230;2023-08-30T09:40:33;147362.03;;;18.16;100.00
19674;BME280;9986;50.610;7.230;2023-08-30T09:45:46;147421.63;;;18.39;100.00
19674;BME280;9986;50.610;7.230;2023-08-30T09:53:44;147493.81;;;18.68;100.00
19674;BME280;9986;50.610;7.230;2023-08-30T10:04:27;147650.97;;;19.29;100.00
19674;BME280;9986;50.610;7.230;2023-08-30T10:09:42;147633.25;;;19.22;100.00
19674;BME280;9986;50.610;7.230;2023-08-30T10:17:34;147667.45;;;19.36;100.00
19674;BME280;9986;50.610;7.230;2023-08-30T10:22:54;147638.33;;;19.24;100.00
19674;BME280;9986;50.610;7.230;2023-08-30T10:28:09;147664.91;;;19.35;100.00
19674;BME280;9986;50.610;7.230;2023-08-30T10:33:43;147689.00;;;19.44;100.00
19674;BME280;9986;50.610;7.230;2023-08-30T10:49:43;147593.87;;;19.07;100.00
19674;BME280;9986;50.610;7.230;2023-08-30T11:03:20;147666.20;;;19.35;100.00
19674;BME280;9986;50.610;7.230;2023-08-30T11:08:36;147689.00;;;19.44;100.00
19674;BME280;9986;50.610;7.230;2023-08-30T11:19:07;147659.83;;;19.33;100.00
19674;BME280;9986;50.610;7.230;2023-08-30T11:27:06;147727.05;;;19.59;100.00
19674;BME280;9986;50.610;7.230;2023-08-30T12:07:34;147801.84;;;19.88;100.00
19674;BME280;9986;50.610;7.230;2023-08-30T12:18:09;147806.94;;;19.90;100.00
19674;BME280;9986;50.610;7.230;2023-08-30T12:28:51;147870.39;;;20.15;100.00
19674;BME280;9986;50.610;7.230;2023-08-30T12:47:38;147837.41;;;20.02;100.00
19674;BME280;9986;50.610;7.230;2023-08-30T12:55:39;147847.58;;;20.06;100.00
19674;BME280;9986;50.610;7.230;2023-08-30T13:03:36;147820.87;;;19.96;100.00
19674;BME280;9986;50.610;7.230;2023-08-30T13:08:56;147692.84;;;19.46;100.00
19674;BME280;9986;50.610;7.230;2023-08-30T13:14:09;147621.84;;;19.18;100.00
19674;BME280;9986;50.610;7.230;2023-08-30T13:19:22;147469.72;;;18.58;100.00
19674;BME280;9986;50.610;7.230;2023-08-30T13:27:18;147488.72;;;18.66;100.00
19674;BME280;9986;50.610;7.230;2023-08-30T13:35:10;147529.28;;;18.81;100.00
19674;BME280;9986;50.610;7.230;2023-08-30T14:04:37;147335.44;;;18.05;100.00
19674;BME280;9986;50.610;7.230;2023-08-30T14:12:28;147264.53;;;17.78;100.00
19674;BME280;9986;50.610;7.230;2023-08-30T14:31:09;147283.52;;;17.85;100.00
19674;BME280;9986;50.610;7.230;2023-08-30T14:39:06;147269.59;;;17.80;100.00
19674;BME280;9986;50.610;7.230;2023-08-30T14:49:41;147258.22;;;17.75;100.00
19674;BME280;9986;50.610;7.230;2023-08-30T15:02:53;146867.23;;;16.21;100.00
19674;BME280;9986;50.610;7.230;2023-08-30T15:08:07;130965.28;;;15.89;100.00
19674;BME280;9986;50.610;7.230;2023-08-30T15:13:36;146715.61;;;15.62;100.00
19674;BME280;9986;50.610;7.230;2023-08-30T15:21:28;146840.73;;;16.11;100.00
19674;BME280;9986;50.610;7.230;2023-08-30T15:26:43;146730.75;;;15.79;100.00
19674;BME280;9986;50.610;7.230;2023-08-30T15:39:58;146881.14;;;16.27;100.00
19674;BME280;9986;50.610;7.230;2023-08-30T15:59:50;147030.42;;;16.86;100.00
19674;BME280;9986;50.610;7.230;2023-08-30T16:43:01;146965.91;;;16.60;100.00
19674;BME280;9986;50.610;7.230;2023-08-30T17:04:11;146001.81;;;16.33;100.00
19674;BME280;9986;50.610;7.230;2023-08-30T17:17:29;146909.05;;;16.38;100.00
19674;BME280;9986;50.610;7.230;2023-08-30T17:28:05;146948.22;;;16.53;100.00
19674;BME280;9986;50.610;7.230;2023-08-30T17:44:02;39883.43;;;16.17;100.00
19674;BME280;9986;50.610;7.230;2023-08-30T17:51:52;52449.51;;;16.21;100.00
19674;BME280;9986;50.610;7.230;2023-08-30T17:57:06;40716.43;;;16.13;100.00
19674;BME280;9986;50.610;7.230;2023-08-30T18:15:42;20526.33;;;15.69;100.00
19674;BME280;9986;50.610;7.230;2023-08-30T18:23:41;24839.43;;;15.53;100.00
19674;BME280;9986;50.610;7.230;2023-08-30T18:31:44;9574.43;;;15.33;100.00
19674;BME280;9986;50.610;7.230;2023-08-30T18:39:35;5275.39;;;15.30;100.00
19674;BME280;9986;50.610;7.230;2023-08-30T18:44:43;7092.43;;;15.26;100.00
19674;BME280;9986;50.610;7.230;2023-08-30T18:49:57;8081.96;;;15.15;100.00
19674;BME280;9986;50.610;7.230;2023-08-30T18:57:48;6430.20;;;15.20;100.00
19674;BME280;9986;50.610;7.230;2023-08-30T19:05:44;39144.01;;;15.20;100.00
19674;BME280;9986;50.610;7.230;2023-08-30T19:10:57;74189.73;;;15.10;100.00
19674;BME280;9986;50.610;7.230;2023-08-30T19:21:26;49834.82;;;15.13;100.00
19674;BME280;9986;50.610;7.230;2023-08-30T19:50:36;36638.03;;;15.14;100.00
19674;BME280;9986;50.610;7.230;2023-08-30T20:06:27;23310.93;;;14.79;100.00
19674;BME280;9986;50.610;7.230;2023-08-30T20:22:17;65265.27;;;15.09;100.00
19674;BME280;9986;50.610;7.230;2023-08-30T20:38:03;39616.82;;;14.82;100.00
19674;BME280;9986;50.610;7.230;2023-08-30T20:53:49;54159.05;;;14.82;100.00
19674;BME280;9986;50.610;7.230;2023-08-30T20:56:21;52977.57;;;14.82;100.00
19674;BME280;9986;50.610;7.230;2023-08-30T21:12:09;57721.19;;;14.25;100.00
19674;BME280;9986;50.610;7.230;2023-08-30T21:17:22;80326.55;;;14.35;100.00
19674;BME280;9986;50.610;7.230;2023-08-30T21:27:52;71555.09;;;14.26;100.00
19674;BME280;9986;50.610;7.230;2023-08-30T21:43:49;67007.80;;;14.19;100.00
19674;BME280;9986;50.610;7.230;2023-08-30T21:51:44;59458.23;;;14.21;100.00
19674;BME280;9986;50.610;7.230;2023-08-30T21:59:35;68362.78;;;14.28;100.00
19674;BME280;9986;50.610;7.230;2023-08-30T22:07:26;54928.11;;;14.12;100.00
19674;BME280;9986;50.610;7.230;2023-08-30T22:15:12;55752.52;;;14.00;100.00
19674;BME280;9986;50.610;7.230;2023-08-30T22:23:08;46714.59;;;13.86;100.00
19674;BME280;9986;50.610;7.230;2023-08-30T22:28:18;54584.55;;;14.03;100.00
19674;BME280;9986;50.610;7.230;2023-08-30T22:38:59;47716.48;;;13.87;100.00
19674;BME280;9986;50.610;7.230;2023-08-30T22:46:56;40713.53;;;13.88;100.00
19674;BME280;9986;50.610;7.230;2023-08-30T22:52:10;58980.34;;;13.93;100.00
19674;BME280;9986;50.610;7.230;2023-08-30T22:57:23;71690.38;;;14.00;100.00
19674;BME280;9986;50.610;7.230;2023-08-30T23:02:36;85853.81;;;14.06;100.00
19674;BME280;9986;50.610;7.230;2023-08-30T23:21:14;44047.47;;;13.89;100.00
19674;BME280;9986;50.610;7.230;2023-08-30T23:26:28;36558.75;;;13.99;100.00
19674;BME280;9986;50.610;7.230;2023-08-30T23:34:18;50562.94;;;13.95;100.00
19674;BME280;9986;50.610;7.230;2023-08-30T23:47:28;44546.98;;;13.88;100.00
